Time;durP1;ratioP1;P1;durP2;ratioP2;P2;SDS_P1;SDS_P2;PMS_P1;PMS_P2;Temp;Humidity;BMP_temperature;BMP_pressure;BME280_temperature;BME280_humidity;BME280_pressure;Samples;Min_cycle;Max_cycle;Signal;HPM_P1;HPM_P2
2022/11/12 00:00:14;;;;;;;;;;;2.60;99.90;;;;;;5033145;28;19928;-79
2022/11/12 00:02:59;;;;;;;;;;;2.50;99.90;;;;;;5037849;28;19927;-80
2022/11/12 00:05:45;;;;;;;;;;;2.70;99.90;;;;;;5027355;28;20492;-78
2022/11/12 00:08:30;;;;;;;;;;;2.90;99.90;;;;;;5039237;28;19939;-79
2022/11/12 00:11:16;;;;;;;;;;;2.90;99.90;;;;;;5038434;28;20448;-79
2022/11/12 00:14:01;;;;;;;;;;;2.90;99.90;;;;;;5034442;28;20077;-79
2022/11/12 00:16:46;;;;;;;;;;;2.70;99.90;;;;;;5035215;28;20581;-80
2022/11/12 00:19:31;;;;;;;;;;;2.70;99.90;;;;;;5032967;28;20090;-78
2022/11/12 00:22:16;;;;;;;;;;;2.80;99.90;;;;;;5029048;28;20397;-79
2022/11/12 00:25:02;;;;;;;;;;;2.90;99.90;;;;;;5038532;28;19927;-78
2022/11/12 00:27:50;;;;;;;;;;;3.00;99.90;;;;;;5037321;28;20034;-80
2022/11/12 00:30:39;;;;;;;;;;;3.00;99.90;;;;;;5034017;28;20398;-79
2022/11/12 00:33:24;;;;;;;;;;;3.10;99.90;;;;;;5042839;28;19985;-79
2022/11/12 00:36:10;;;;;;;;;;;3.20;99.90;;;;;;5041640;28;19920;-79
2022/11/12 00:38:55;;;;;;;;;;;3.10;99.90;;;;;;5037017;28;19936;-79
2022/11/12 00:41:40;;;;;;;;;;;3.00;99.90;;;;;;5042517;28;19920;-78
2022/11/12 00:44:26;;;;;;;;;;;2.80;99.90;;;;;;5036668;28;19927;-79
2022/11/12 00:47:11;;;;;;;;;;;3.00;99.90;;;;;;5056409;28;19994;-79
2022/11/12 00:49:56;;;;;;;;;;;3.10;99.90;;;;;;5036058;28;20024;-79
2022/11/12 00:52:42;;;;;;;;;;;3.00;99.90;;;;;;5039359;28;20367;-79
2022/11/12 00:55:27;;;;;;;;;;;2.80;99.90;;;;;;5043259;28;20027;-79
2022/11/12 00:58:18;;;;;;;;;;;2.90;99.90;;;;;;5039566;28;19974;-78
2022/11/12 01:01:08;;;;;;;;;;;2.90;99.90;;;;;;5045850;28;19923;-79
2022/11/12 01:03:53;;;;;;;;;;;2.70;99.90;;;;;;5040428;28;19928;-78
2022/11/12 01:06:39;;;;;;;;;;;2.60;99.90;;;;;;5036409;28;20477;-80
2022/11/12 01:09:24;;;;;;;;;;;2.50;99.90;;;;;;5031747;28;19920;-79
2022/11/12 01:12:10;;;;;;;;;;;2.40;99.90;;;;;;5053406;28;19927;-79
2022/11/12 01:14:55;;;;;;;;;;;2.30;99.90;;;;;;5053029;28;19921;-79
2022/11/12 01:17:40;;;;;;;;;;;2.30;99.90;;;;;;5038285;28;19928;-79
2022/11/12 01:20:26;;;;;;;;;;;2.40;99.90;;;;;;5036703;28;19931;-79
2022/11/12 01:23:11;;;;;;;;;;;2.50;99.90;;;;;;5032488;28;19925;-79
2022/11/12 01:25:56;;;;;;;;;;;2.70;99.90;;;;;;5051488;28;19925;-78
2022/11/12 01:28:42;;;;;;;;;;;2.60;99.90;;;;;;5043242;28;19957;-78
2022/11/12 01:31:29;;;;;;;;;;;2.60;99.90;;;;;;5038777;28;19947;-79
2022/11/12 01:34:17;;;;;;;;;;;2.50;99.90;;;;;;5049365;28;19995;-79
2022/11/12 01:37:02;;;;;;;;;;;2.40;99.90;;;;;;5042293;28;19940;-79
2022/11/12 01:39:50;;;;;;;;;;;2.30;99.90;;;;;;5030350;28;20166;-79
2022/11/12 01:42:37;;;;;;;;;;;2.60;99.90;;;;;;5037710;28;19928;-79
2022/11/12 01:45:22;;;;;;;;;;;2.40;99.90;;;;;;5042844;28;19924;-80
2022/11/12 01:48:24;;;;;;;;;;;2.50;99.90;;;;;;5042945;28;20009;-80
2022/11/12 01:51:13;;;;;;;;;;;2.50;99.90;;;;;;5039017;28;19977;-80
2022/11/12 01:54:01;;;;;;;;;;;2.40;99.90;;;;;;5032171;28;19928;-79
2022/11/12 01:56:54;;;;;;;;;;;2.40;99.90;;;;;;5040306;28;19928;-79
2022/11/12 01:59:42;;;;;;;;;;;2.40;99.90;;;;;;5037396;28;20039;-78
2022/11/12 02:02:27;;;;;;;;;;;2.30;99.90;;;;;;5035433;28;19931;-80
2022/11/12 02:05:13;;;;;;;;;;;2.30;99.90;;;;;;5041850;28;19925;-79
2022/11/12 02:07:59;;;;;;;;;;;2.20;99.90;;;;;;5039389;28;19924;-79
2022/11/12 02:11:09;;;;;;;;;;;2.20;99.90;;;;;;5039023;28;19928;-79
2022/11/12 02:13:57;;;;;;;;;;;2.10;99.90;;;;;;5039132;28;19956;-79
2022/11/12 02:16:43;;;;;;;;;;;2.40;99.90;;;;;;5043019;28;20027;-80
2022/11/12 02:19:28;;;;;;;;;;;2.40;99.90;;;;;;5032792;28;20378;-79
2022/11/12 02:22:14;;;;;;;;;;;2.30;99.90;;;;;;5028622;28;19920;-79
2022/11/12 02:24:59;;;;;;;;;;;2.10;99.90;;;;;;5034452;28;20489;-79
2022/11/12 02:27:44;;;;;;;;;;;2.20;99.90;;;;;;5039739;28;20020;-80
2022/11/12 02:30:31;;;;;;;;;;;2.20;99.90;;;;;;5034298;28;19921;-78
2022/11/12 02:33:16;;;;;;;;;;;2.10;99.90;;;;;;5035062;28;19920;-79
2022/11/12 02:36:02;;;;;;;;;;;1.90;99.90;;;;;;5034669;28;20007;-79
2022/11/12 02:38:46;;;;;;;;;;;1.90;99.90;;;;;;5035696;28;20038;-78
2022/11/12 02:41:32;;;;;;;;;;;1.80;99.90;;;;;;5039281;28;20360;-78
2022/11/12 02:44:17;;;;;;;;;;;1.80;99.90;;;;;;5034042;28;20011;-79
2022/11/12 02:47:02;;;;;;;;;;;1.70;99.90;;;;;;5035203;28;19937;-79
2022/11/12 02:49:48;;;;;;;;;;;1.60;99.90;;;;;;5036925;28;19932;-78
2022/11/12 02:52:33;;;;;;;;;;;1.60;99.90;;;;;;5033012;28;20793;-79
2022/11/12 02:55:18;;;;;;;;;;;1.70;99.90;;;;;;5038609;28;20021;-78
2022/11/12 02:58:04;;;;;;;;;;;1.70;99.90;;;;;;5042353;28;20028;-78
2022/11/12 03:00:49;;;;;;;;;;;1.70;99.90;;;;;;5034994;28;20043;-79
2022/11/12 03:03:35;;;;;;;;;;;1.70;99.90;;;;;;5040999;28;19920;-78
2022/11/12 03:06:20;;;;;;;;;;;1.60;99.90;;;;;;5036344;28;19994;-79
2022/11/12 03:09:05;;;;;;;;;;;1.60;99.90;;;;;;5036914;28;19921;-79
2022/11/12 03:11:50;;;;;;;;;;;1.70;99.90;;;;;;5049171;28;20066;-79
2022/11/12 03:14:35;;;;;;;;;;;1.60;99.90;;;;;;5032473;28;19984;-79
2022/11/12 03:17:20;;;;;;;;;;;1.60;99.90;;;;;;5036327;28;19935;-79
2022/11/12 03:20:05;;;;;;;;;;;1.80;99.90;;;;;;5034616;28;20377;-79
2022/11/12 03:22:55;;;;;;;;;;;1.80;99.90;;;;;;5034566;28;19979;-79
2022/11/12 03:25:40;;;;;;;;;;;1.90;99.90;;;;;;5033139;28;19928;-79
2022/11/12 03:28:26;;;;;;;;;;;2.10;99.90;;;;;;5037430;28;20321;-78
2022/11/12 03:31:14;;;;;;;;;;;2.10;99.90;;;;;;5029769;28;19920;-78
2022/11/12 03:33:59;;;;;;;;;;;2.00;99.90;;;;;;5031254;28;19927;-79
2022/11/12 03:36:45;;;;;;;;;;;1.90;99.90;;;;;;5032917;28;19928;-79
2022/11/12 03:39:30;;;;;;;;;;;1.70;99.90;;;;;;5035362;28;19921;-78
2022/11/12 03:42:15;;;;;;;;;;;1.70;99.90;;;;;;5039861;28;19921;-79
2022/11/12 03:45:01;;;;;;;;;;;1.60;99.90;;;;;;5041440;28;19925;-79
2022/11/12 03:47:50;;;;;;;;;;;1.60;99.90;;;;;;5036995;28;19927;-78
2022/11/12 03:50:36;;;;;;;;;;;1.60;99.90;;;;;;5037138;28;19920;-79
2022/11/12 03:53:21;;;;;;;;;;;1.80;99.90;;;;;;5032160;28;20007;-78
2022/11/12 03:56:06;;;;;;;;;;;1.70;99.90;;;;;;5047812;28;19928;-79
2022/11/12 03:58:51;;;;;;;;;;;1.90;99.90;;;;;;5035888;28;19948;-78
2022/11/12 04:01:36;;;;;;;;;;;1.90;99.90;;;;;;5036374;28;19928;-79
2022/11/12 04:04:21;;;;;;;;;;;1.80;99.90;;;;;;5043947;28;19947;-79
2022/11/12 04:10:17;;;;;;;;;;;1.90;99.90;;;;;;5038288;28;20305;-78
2022/11/12 04:22:16;;;;;;;;;;;2.00;99.90;;;;;;5033821;28;19928;-78
2022/11/12 04:28:05;;;;;;;;;;;2.00;99.90;;;;;;5042145;28;19948;-79
2022/11/12 04:30:51;;;;;;;;;;;1.90;99.90;;;;;;5043665;28;19928;-78
2022/11/12 04:33:36;;;;;;;;;;;2.00;99.90;;;;;;5046518;28;19927;-80
2022/11/12 04:36:21;;;;;;;;;;;1.90;99.90;;;;;;5046334;28;19939;-80
2022/11/12 04:39:06;;;;;;;;;;;1.80;99.90;;;;;;5043044;28;20042;-80
2022/11/12 04:45:02;;;;;;;;;;;1.50;99.90;;;;;;5045789;28;19946;-79
2022/11/12 04:47:48;;;;;;;;;;;1.40;99.90;;;;;;5059406;28;19928;-79
2022/11/12 04:50:33;;;;;;;;;;;1.30;99.90;;;;;;5042349;28;19943;-79
2022/11/12 04:53:18;;;;;;;;;;;1.40;99.90;;;;;;5038321;28;19952;-79
2022/11/12 04:56:03;;;;;;;;;;;1.30;99.90;;;;;;5041730;28;19992;-79
2022/11/12 04:58:49;;;;;;;;;;;1.30;99.90;;;;;;5042057;28;19927;-79
2022/11/12 05:01:34;;;;;;;;;;;1.50;99.90;;;;;;5046274;28;20333;-79
2022/11/12 05:04:19;;;;;;;;;;;1.40;99.90;;;;;;5039130;28;19935;-79
2022/11/12 05:07:04;;;;;;;;;;;1.30;99.90;;;;;;5041839;28;20011;-80
2022/11/12 05:09:49;;;;;;;;;;;1.30;99.90;;;;;;5044359;28;19967;-78
2022/11/12 05:12:35;;;;;;;;;;;1.30;99.90;;;;;;5037531;28;19990;-79
2022/11/12 05:15:20;;;;;;;;;;;1.20;99.90;;;;;;5040892;28;19959;-79
2022/11/12 05:18:06;;;;;;;;;;;1.10;99.90;;;;;;5033996;28;19996;-79
2022/11/12 05:20:51;;;;;;;;;;;1.00;99.90;;;;;;5056347;28;20059;-79
2022/11/12 05:23:37;;;;;;;;;;;1.10;99.90;;;;;;5035865;28;19920;-79
2022/11/12 05:26:22;;;;;;;;;;;1.40;99.90;;;;;;5046627;28;19925;-79
2022/11/12 05:29:07;;;;;;;;;;;1.20;99.90;;;;;;5038874;28;19936;-79
2022/11/12 05:31:53;;;;;;;;;;;1.10;99.90;;;;;;5040265;28;20051;-80
2022/11/12 05:34:39;;;;;;;;;;;1.10;99.90;;;;;;5042990;28;19920;-78
2022/11/12 05:37:24;;;;;;;;;;;1.20;99.90;;;;;;5037282;28;19929;-79
2022/11/12 05:40:09;;;;;;;;;;;1.40;99.90;;;;;;5052019;28;19928;-79
2022/11/12 05:42:54;;;;;;;;;;;1.50;99.90;;;;;;5035170;28;20437;-79
2022/11/12 05:45:42;;;;;;;;;;;1.70;99.90;;;;;;5039723;28;19920;-79
2022/11/12 05:48:28;;;;;;;;;;;1.40;99.90;;;;;;5044864;28;20605;-80
2022/11/12 05:51:14;;;;;;;;;;;1.30;99.90;;;;;;5044179;28;19931;-80
2022/11/12 05:54:00;;;;;;;;;;;1.30;99.90;;;;;;5056560;28;19927;-80
2022/11/12 05:56:45;;;;;;;;;;;1.20;99.90;;;;;;5042343;28;19947;-79
2022/11/12 05:59:30;;;;;;;;;;;1.20;99.90;;;;;;5045896;28;19928;-79
2022/11/12 06:02:16;;;;;;;;;;;1.20;99.90;;;;;;5042945;28;19921;-79
2022/11/12 06:05:01;;;;;;;;;;;1.20;99.90;;;;;;5042062;28;19921;-79
2022/11/12 06:07:46;;;;;;;;;;;1.30;99.90;;;;;;5044089;28;19928;-80
2022/11/12 06:10:33;;;;;;;;;;;1.20;99.90;;;;;;5042209;28;20424;-80
2022/11/12 06:13:20;;;;;;;;;;;1.30;99.90;;;;;;5040518;28;20003;-80
2022/11/12 06:16:06;;;;;;;;;;;1.40;99.90;;;;;;5039210;28;19947;-79
2022/11/12 06:18:51;;;;;;;;;;;1.50;99.90;;;;;;5038911;28;19963;-79
2022/11/12 06:21:36;;;;;;;;;;;1.60;99.90;;;;;;5040081;28;20054;-79
2022/11/12 06:24:21;;;;;;;;;;;1.40;99.90;;;;;;5032972;28;20019;-79
2022/11/12 06:27:06;;;;;;;;;;;1.50;99.90;;;;;;5042828;28;19960;-79
2022/11/12 06:29:52;;;;;;;;;;;1.70;99.90;;;;;;5041790;28;19996;-79
2022/11/12 06:32:37;;;;;;;;;;;2.00;99.90;;;;;;5055328;28;19943;-79
2022/11/12 06:35:22;;;;;;;;;;;2.10;99.90;;;;;;5035988;28;20477;-79
2022/11/12 06:38:07;;;;;;;;;;;2.00;99.90;;;;;;5040758;28;19975;-79
2022/11/12 06:40:52;;;;;;;;;;;2.10;99.90;;;;;;5035215;28;19979;-79
2022/11/12 06:43:38;;;;;;;;;;;2.30;99.90;;;;;;5041557;28;19975;-80
2022/11/12 06:46:23;;;;;;;;;;;2.40;99.90;;;;;;5042345;28;19985;-79
2022/11/12 06:49:08;;;;;;;;;;;2.60;99.90;;;;;;5036650;28;19932;-79
2022/11/12 06:51:53;;;;;;;;;;;2.70;99.90;;;;;;5038914;28;19928;-79
2022/11/12 06:54:39;;;;;;;;;;;2.70;99.90;;;;;;5040140;28;19999;-79
2022/11/12 06:57:24;;;;;;;;;;;2.70;99.90;;;;;;5041717;28;19931;-79
2022/11/12 07:00:10;;;;;;;;;;;2.80;99.90;;;;;;5033389;28;20248;-79
2022/11/12 07:02:55;;;;;;;;;;;2.90;99.90;;;;;;5052241;28;19921;-79
2022/11/12 07:05:40;;;;;;;;;;;2.90;99.90;;;;;;5038703;28;19928;-79
2022/11/12 07:08:26;;;;;;;;;;;2.70;99.90;;;;;;5039887;28;20215;-80
2022/11/12 07:11:12;;;;;;;;;;;2.60;99.90;;;;;;5044475;28;19924;-78
2022/11/12 07:13:57;;;;;;;;;;;2.70;99.90;;;;;;5035839;28;19927;-79
2022/11/12 07:16:42;;;;;;;;;;;2.90;99.90;;;;;;5037048;28;19928;-79
2022/11/12 07:19:27;;;;;;;;;;;3.10;99.90;;;;;;5036168;28;19924;-79
2022/11/12 07:22:13;;;;;;;;;;;3.20;99.90;;;;;;5033664;28;19946;-79
2022/11/12 07:24:58;;;;;;;;;;;3.20;99.90;;;;;;5036714;28;20401;-79
2022/11/12 07:27:43;;;;;;;;;;;3.40;99.90;;;;;;5036759;28;19944;-79
2022/11/12 07:30:28;;;;;;;;;;;3.40;99.90;;;;;;5037780;28;20220;-80
2022/11/12 07:33:16;;;;;;;;;;;3.60;99.90;;;;;;5038560;28;19947;-79
2022/11/12 07:36:06;;;;;;;;;;;3.60;99.90;;;;;;5041794;28;19928;-79
2022/11/12 07:38:53;;;;;;;;;;;3.80;99.90;;;;;;5039490;28;19928;-79
2022/11/12 07:41:39;;;;;;;;;;;3.80;99.90;;;;;;5046184;28;19943;-76
2022/11/12 07:44:24;;;;;;;;;;;3.80;99.90;;;;;;5052607;28;19920;-77
2022/11/12 07:47:09;;;;;;;;;;;3.70;99.90;;;;;;5030768;28;20559;-78
2022/11/12 07:49:54;;;;;;;;;;;3.80;99.90;;;;;;5035952;28;19928;-78
2022/11/12 07:52:39;;;;;;;;;;;3.70;99.90;;;;;;5036093;28;20405;-78
2022/11/12 07:55:24;;;;;;;;;;;3.90;99.90;;;;;;5034739;28;20155;-78
2022/11/12 07:58:09;;;;;;;;;;;4.10;99.90;;;;;;5036597;28;19974;-77
2022/11/12 08:00:54;;;;;;;;;;;4.00;99.90;;;;;;5035634;28;19927;-78
2022/11/12 08:03:39;;;;;;;;;;;4.20;99.90;;;;;;5036345;28;19968;-78
2022/11/12 08:06:25;;;;;;;;;;;4.10;99.90;;;;;;5038391;28;20349;-77
2022/11/12 08:09:10;;;;;;;;;;;4.30;99.90;;;;;;5037826;28;19932;-77
2022/11/12 08:11:55;;;;;;;;;;;4.40;99.90;;;;;;5031450;28;19951;-77
2022/11/12 08:14:40;;;;;;;;;;;4.40;99.90;;;;;;5039912;28;20373;-77
2022/11/12 08:17:25;;;;;;;;;;;4.50;99.90;;;;;;5038802;28;19924;-77
2022/11/12 08:20:11;;;;;;;;;;;4.40;99.90;;;;;;5034205;28;19928;-76
2022/11/12 08:23:00;;;;;;;;;;;4.40;99.90;;;;;;5039365;28;19931;-76
2022/11/12 08:25:45;;;;;;;;;;;4.40;99.90;;;;;;5036574;28;20043;-77
2022/11/12 08:28:31;;;;;;;;;;;4.50;99.90;;;;;;5041266;28;19927;-77
2022/11/12 08:31:18;;;;;;;;;;;4.60;99.90;;;;;;5041915;28;20022;-77
2022/11/12 08:34:10;;;;;;;;;;;4.70;99.90;;;;;;5036364;28;19921;-77
2022/11/12 08:36:56;;;;;;;;;;;4.70;99.90;;;;;;5039184;28;19969;-77
2022/11/12 08:39:41;;;;;;;;;;;4.90;99.90;;;;;;5035877;28;19927;-77
2022/11/12 08:42:26;;;;;;;;;;;5.00;99.90;;;;;;5034952;28;20563;-77
2022/11/12 08:45:11;;;;;;;;;;;5.10;99.90;;;;;;5038322;28;20002;-77
2022/11/12 08:48:23;;;;;;;;;;;5.30;99.90;;;;;;5035009;28;20644;-77
2022/11/12 08:51:08;;;;;;;;;;;5.50;99.90;;;;;;5038563;28;20018;-76
2022/11/12 08:53:57;;;;;;;;;;;5.70;99.90;;;;;;5052119;28;19932;-77
2022/11/12 08:56:42;;;;;;;;;;;6.00;99.90;;;;;;5043146;28;20172;-78
2022/11/12 08:59:27;;;;;;;;;;;6.00;99.90;;;;;;5040723;28;19921;-77
2022/11/12 09:02:12;;;;;;;;;;;6.10;99.90;;;;;;5037838;28;20069;-77
2022/11/12 09:04:58;;;;;;;;;;;6.00;99.90;;;;;;5041993;28;19944;-77
2022/11/12 09:07:43;;;;;;;;;;;6.20;99.90;;;;;;5043561;28;20053;-77
2022/11/12 09:10:35;;;;;;;;;;;6.20;99.90;;;;;;5039126;28;19927;-77
2022/11/12 09:13:20;;;;;;;;;;;6.40;99.90;;;;;;5029878;22;21108;-77
2022/11/12 09:16:06;;;;;;;;;;;6.50;99.90;;;;;;5004947;28;19922;-78
2022/11/12 09:18:51;;;;;;;;;;;6.70;99.90;;;;;;5029162;28;20459;-78
2022/11/12 09:21:36;;;;;;;;;;;6.80;99.90;;;;;;5003956;28;19925;-77
2022/11/12 09:24:21;;;;;;;;;;;6.90;99.90;;;;;;4987780;28;19948;-77
2022/11/12 09:27:06;;;;;;;;;;;7.10;99.90;;;;;;4979686;28;19952;-77
2022/11/12 09:29:52;;;;;;;;;;;7.30;99.90;;;;;;4998141;28;19936;-77
2022/11/12 09:32:37;;;;;;;;;;;7.50;99.90;;;;;;5004338;28;19928;-77
2022/11/12 09:35:22;;;;;;;;;;;7.50;99.90;;;;;;4993459;28;20032;-77
2022/11/12 09:38:07;;;;;;;;;;;7.60;99.90;;;;;;4996324;28;19929;-78
2022/11/12 09:41:14;;;;;;;;;;;7.90;99.90;;;;;;4984108;28;19929;-77
2022/11/12 09:44:07;;;;;;;;;;;8.20;99.90;;;;;;4995393;28;20041;-78
2022/11/12 09:47:03;;;;;;;;;;;8.30;99.90;;;;;;4996295;28;19948;-78
2022/11/12 09:50:00;;;;;;;;;;;8.50;99.90;;;;;;4984061;28;19948;-78
2022/11/12 09:52:47;;;;;;;;;;;8.50;99.90;;;;;;4984556;28;20063;-78
2022/11/12 09:55:35;;;;;;;;;;;8.40;99.90;;;;;;4997398;28;19933;-77
2022/11/12 09:58:20;;;;;;;;;;;8.60;99.90;;;;;;5002349;28;20000;-78
2022/11/12 10:01:15;;;;;;;;;;;8.90;99.90;;;;;;4988577;28;19989;-78
2022/11/12 10:04:01;;;;;;;;;;;9.10;99.90;;;;;;4997214;28;19926;-77
2022/11/12 10:06:53;;;;;;;;;;;9.30;99.90;;;;;;4989125;28;19961;-79
2022/11/12 10:09:51;;;;;;;;;;;9.40;99.90;;;;;;4977045;28;19944;-79
2022/11/12 10:12:36;;;;;;;;;;;9.50;99.90;;;;;;4983871;28;19979;-77
2022/11/12 10:19:09;;;;;;;;;;;9.70;99.90;;;;;;4942595;28;19938;-78
2022/11/12 10:22:18;;;;;;;;;;;9.90;99.90;;;;;;4977967;28;19929;-79
2022/11/12 10:25:11;;;;;;;;;;;10.10;99.90;;;;;;4979684;28;19929;-78
2022/11/12 10:27:56;;;;;;;;;;;10.30;99.90;;;;;;4980228;28;19925;-77
2022/11/12 10:30:42;;;;;;;;;;;10.50;99.90;;;;;;4988506;28;20011;-78
2022/11/12 10:33:28;;;;;;;;;;;10.80;99.90;;;;;;4981464;28;19988;-78
2022/11/12 10:36:32;;;;;;;;;;;10.90;99.90;;;;;;4992053;28;19937;-78
2022/11/12 10:39:34;;;;;;;;;;;11.10;99.90;;;;;;4999721;28;19928;-78
2022/11/12 10:42:21;;;;;;;;;;;11.10;99.90;;;;;;4985029;28;19937;-78
2022/11/12 10:45:20;;;;;;;;;;;11.20;99.90;;;;;;4993712;28;20012;-78
2022/11/12 10:48:25;;;;;;;;;;;11.40;99.90;;;;;;4982377;28;19929;-77
2022/11/12 10:51:23;;;;;;;;;;;11.50;99.90;;;;;;4983032;28;19965;-78
2022/11/12 10:54:19;;;;;;;;;;;11.50;99.90;;;;;;4994506;28;20406;-79
2022/11/12 10:57:16;;;;;;;;;;;11.50;99.90;;;;;;4979153;28;20025;-78
2022/11/12 11:00:06;;;;;;;;;;;11.40;99.90;;;;;;4982090;28;20214;-78
2022/11/12 11:02:52;;;;;;;;;;;11.50;99.90;;;;;;4993769;28;19932;-78
2022/11/12 11:05:44;;;;;;;;;;;11.60;99.90;;;;;;5005306;28;20013;-77
2022/11/12 11:08:32;;;;;;;;;;;11.50;99.90;;;;;;4977733;28;19928;-78
2022/11/12 11:11:30;;;;;;;;;;;11.30;99.90;;;;;;4998537;28;20301;-78
2022/11/12 11:14:21;;;;;;;;;;;11.30;99.90;;;;;;4985751;28;19928;-78
2022/11/12 11:17:14;;;;;;;;;;;11.30;99.90;;;;;;4979307;28;19993;-78
2022/11/12 11:19:59;;;;;;;;;;;11.30;99.90;;;;;;4993702;28;19928;-78
2022/11/12 11:22:46;;;;;;;;;;;11.40;99.90;;;;;;4999458;28;20542;-78
2022/11/12 11:25:34;;;;;;;;;;;11.50;99.90;;;;;;4995959;28;20544;-78
2022/11/12 11:28:24;;;;;;;;;;;11.60;99.90;;;;;;4980821;28;19980;-79
2022/11/12 11:31:28;;;;;;;;;;;11.60;99.90;;;;;;4990923;28;20300;-78
2022/11/12 11:34:19;;;;;;;;;;;11.80;99.90;;;;;;5007589;28;20525;-78
2022/11/12 11:37:25;;;;;;;;;;;11.90;99.90;;;;;;4980976;28;19929;-79
2022/11/12 11:40:11;;;;;;;;;;;12.10;99.90;;;;;;4989825;28;19956;-78
2022/11/12 11:43:11;;;;;;;;;;;12.20;99.90;;;;;;4978517;28;19937;-77
2022/11/12 11:46:13;;;;;;;;;;;12.30;99.90;;;;;;4980940;28;19921;-78
2022/11/12 11:49:21;;;;;;;;;;;12.30;99.90;;;;;;4991746;28;19922;-78
2022/11/12 11:52:21;;;;;;;;;;;12.50;99.90;;;;;;5001103;28;19922;-78
2022/11/12 11:55:22;;;;;;;;;;;12.80;99.90;;;;;;5004929;28;19987;-80
2022/11/12 11:58:26;;;;;;;;;;;13.00;99.90;;;;;;4993695;28;19926;-79
2022/11/12 12:01:17;;;;;;;;;;;13.10;99.90;;;;;;4994281;28;19922;-78
2022/11/12 12:04:18;;;;;;;;;;;13.20;99.90;;;;;;4994265;28;20309;-78
2022/11/12 12:07:08;;;;;;;;;;;13.20;99.90;;;;;;4979577;28;19961;-78
2022/11/12 12:10:01;;;;;;;;;;;13.40;99.90;;;;;;4980603;28;20041;-79
2022/11/12 12:13:03;;;;;;;;;;;13.50;99.90;;;;;;5003720;28;19944;-79
2022/11/12 12:16:07;;;;;;;;;;;13.70;99.90;;;;;;4995447;28;20622;-79
2022/11/12 12:18:57;;;;;;;;;;;13.80;99.90;;;;;;5004432;28;20366;-79
2022/11/12 12:21:45;;;;;;;;;;;13.90;99.90;;;;;;4977901;28;20114;-77
2022/11/12 12:24:49;;;;;;;;;;;13.90;99.90;;;;;;4997398;28;19929;-78
2022/11/12 12:27:36;;;;;;;;;;;13.90;99.90;;;;;;4982266;28;19928;-76
2022/11/12 12:30:25;;;;;;;;;;;13.90;99.90;;;;;;4998572;28;20091;-78
2022/11/12 12:33:19;;;;;;;;;;;13.90;99.90;;;;;;4983419;28;19952;-77
2022/11/12 12:36:07;;;;;;;;;;;13.90;99.90;;;;;;4981298;28;19929;-78
2022/11/12 12:39:01;;;;;;;;;;;14.00;99.90;;;;;;5010141;28;20171;-78
2022/11/12 12:41:55;;;;;;;;;;;14.00;99.90;;;;;;4980256;28;19940;-76
2022/11/12 12:45:00;;;;;;;;;;;14.00;99.90;;;;;;4996246;28;20295;-78
2022/11/12 12:47:46;;;;;;;;;;;14.10;99.90;;;;;;4981519;28;20453;-78
2022/11/12 12:50:32;;;;;;;;;;;14.10;99.90;;;;;;5003962;28;20025;-78
2022/11/12 12:53:17;;;;;;;;;;;14.10;99.90;;;;;;4979869;28;19996;-78
2022/11/12 12:56:26;;;;;;;;;;;14.30;99.90;;;;;;4980083;28;19953;-79
2022/11/12 12:59:21;;;;;;;;;;;14.30;99.90;;;;;;4979220;28;19921;-78
2022/11/12 13:02:23;;;;;;;;;;;14.40;99.90;;;;;;5006040;28;19921;-78
2022/11/12 13:05:23;;;;;;;;;;;14.50;99.90;;;;;;4983379;28;19989;-78
2022/11/12 13:08:13;;;;;;;;;;;14.70;99.90;;;;;;4985005;28;20360;-78
2022/11/12 13:10:58;;;;;;;;;;;14.70;99.90;;;;;;5001528;28;19921;-78
2022/11/12 13:13:44;;;;;;;;;;;14.70;99.90;;;;;;4997135;28;19928;-78
2022/11/12 13:16:52;;;;;;;;;;;14.70;99.90;;;;;;4996528;28;19930;-78
2022/11/12 13:19:43;;;;;;;;;;;14.60;99.90;;;;;;4987096;28;20020;-79
2022/11/12 13:22:32;;;;;;;;;;;14.60;99.90;;;;;;4983666;28;20148;-78
2022/11/12 13:25:17;;;;;;;;;;;14.70;99.90;;;;;;5005733;28;19936;-78
2022/11/12 13:28:04;;;;;;;;;;;14.70;99.90;;;;;;4985344;28;19930;-77
2022/11/12 13:30:49;;;;;;;;;;;14.70;99.90;;;;;;4991160;28;19956;-78
2022/11/12 13:33:35;;;;;;;;;;;14.70;99.90;;;;;;4994595;28;19944;-78
2022/11/12 13:36:25;;;;;;;;;;;14.80;99.90;;;;;;4975868;28;19925;-78
2022/11/12 13:39:13;;;;;;;;;;;14.80;99.90;;;;;;4990399;28;19928;-78
2022/11/12 13:45:04;;;;;;;;;;;14.90;99.90;;;;;;4982621;28;20384;-77
2022/11/12 13:47:51;;;;;;;;;;;14.80;99.90;;;;;;4978765;28;20036;-78
2022/11/12 13:50:37;;;;;;;;;;;14.70;99.90;;;;;;4991920;28;20375;-77
2022/11/12 13:53:25;;;;;;;;;;;14.60;99.90;;;;;;4978257;28;19975;-77
2022/11/12 13:56:12;;;;;;;;;;;14.50;99.90;;;;;;4984612;28;19949;-77
2022/11/12 13:59:13;;;;;;;;;;;14.40;99.90;;;;;;4992950;28;19925;-78
2022/11/12 14:02:02;;;;;;;;;;;14.30;99.90;;;;;;4991816;28;19932;-77
2022/11/12 14:04:47;;;;;;;;;;;14.10;99.90;;;;;;5001111;28;19945;-77
2022/11/12 14:07:47;;;;;;;;;;;14.10;99.90;;;;;;4981421;28;19928;-77
2022/11/12 14:10:50;;;;;;;;;;;13.90;99.90;;;;;;4976967;28;19930;-77
2022/11/12 14:13:59;;;;;;;;;;;13.90;99.90;;;;;;4980021;28;20291;-78
2022/11/12 14:16:44;;;;;;;;;;;13.90;99.90;;;;;;4980829;28;19945;-77
2022/11/12 14:19:41;;;;;;;;;;;13.80;99.90;;;;;;4981629;28;20418;-77
2022/11/12 14:22:28;;;;;;;;;;;13.80;99.90;;;;;;4981487;28;19983;-77
2022/11/12 14:25:15;;;;;;;;;;;13.80;99.90;;;;;;4987712;28;19940;-77
2022/11/12 14:28:01;;;;;;;;;;;13.70;99.90;;;;;;4977645;28;20059;-77
2022/11/12 14:30:46;;;;;;;;;;;13.60;99.90;;;;;;4992513;28;19929;-77
2022/11/12 14:33:31;;;;;;;;;;;13.60;99.90;;;;;;5005669;28;20398;-77
2022/11/12 14:36:17;;;;;;;;;;;13.60;99.90;;;;;;4989270;28;20003;-77
2022/11/12 14:39:02;;;;;;;;;;;13.60;99.90;;;;;;4987256;28;20100;-77
2022/11/12 14:41:49;;;;;;;;;;;13.60;99.90;;;;;;4975393;28;20063;-77
2022/11/12 14:44:36;;;;;;;;;;;13.60;99.90;;;;;;4979272;28;19969;-78
2022/11/12 14:47:23;;;;;;;;;;;13.40;99.90;;;;;;4991736;28;19947;-75
2022/11/12 14:50:13;;;;;;;;;;;13.40;99.90;;;;;;5001292;28;19932;-77
2022/11/12 14:53:02;;;;;;;;;;;13.40;99.90;;;;;;4979446;28;19928;-77
2022/11/12 14:55:50;;;;;;;;;;;13.10;99.90;;;;;;4993434;28;20450;-77
2022/11/12 14:58:36;;;;;;;;;;;13.00;99.90;;;;;;4990778;28;20073;-77
2022/11/12 15:01:29;;;;;;;;;;;13.00;99.90;;;;;;5001217;28;19929;-77
2022/11/12 15:04:40;;;;;;;;;;;12.90;99.90;;;;;;4990884;28;20398;-77
2022/11/12 15:07:25;;;;;;;;;;;12.90;99.90;;;;;;4981349;28;19928;-78
2022/11/12 15:10:29;;;;;;;;;;;12.80;99.90;;;;;;4979353;28;19926;-79
2022/11/12 15:13:16;;;;;;;;;;;12.70;99.90;;;;;;4977909;28;19976;-76
2022/11/12 15:16:04;;;;;;;;;;;12.60;99.90;;;;;;4990062;28;19929;-79
2022/11/12 15:19:00;;;;;;;;;;;12.50;99.90;;;;;;4976339;28;20229;-77
2022/11/12 15:21:53;;;;;;;;;;;12.40;99.90;;;;;;4976475;28;19928;-78
2022/11/12 15:24:40;;;;;;;;;;;12.10;99.90;;;;;;4989685;28;20456;-77
2022/11/12 15:27:37;;;;;;;;;;;11.90;99.90;;;;;;4994277;28;19921;-77
2022/11/12 15:30:22;;;;;;;;;;;11.80;99.90;;;;;;5008065;28;19976;-77
2022/11/12 15:33:08;;;;;;;;;;;11.80;99.90;;;;;;4991223;28;19941;-77
2022/11/12 15:35:57;;;;;;;;;;;11.60;99.90;;;;;;4978681;28;20245;-76
2022/11/12 15:38:47;;;;;;;;;;;11.50;99.90;;;;;;4992078;28;19926;-78
2022/11/12 15:41:32;;;;;;;;;;;11.50;99.90;;;;;;4977484;28;19929;-76
2022/11/12 15:44:17;;;;;;;;;;;11.30;99.90;;;;;;4989394;28;20421;-77
2022/11/12 15:47:03;;;;;;;;;;;11.10;99.90;;;;;;5006960;28;19984;-78
2022/11/12 15:49:48;;;;;;;;;;;10.90;99.90;;;;;;4981138;28;19928;-77
2022/11/12 15:52:34;;;;;;;;;;;10.80;99.90;;;;;;4977022;28;19976;-76
2022/11/12 15:55:19;;;;;;;;;;;10.70;99.90;;;;;;4992863;28;19988;-77
2022/11/12 15:58:05;;;;;;;;;;;10.50;99.90;;;;;;4979968;28;19985;-77
2022/11/12 16:00:50;;;;;;;;;;;10.30;99.90;;;;;;4997559;28;19976;-78
2022/11/12 16:03:36;;;;;;;;;;;10.20;99.90;;;;;;4985609;28;20177;-76
2022/11/12 16:06:21;;;;;;;;;;;10.10;99.90;;;;;;4992449;28;20339;-76
2022/11/12 16:09:06;;;;;;;;;;;9.90;99.90;;;;;;4983410;28;20016;-76
2022/11/12 16:11:56;;;;;;;;;;;9.80;99.90;;;;;;4983984;28;20013;-76
2022/11/12 16:14:41;;;;;;;;;;;9.70;99.90;;;;;;4984670;28;19929;-77
2022/11/12 16:17:26;;;;;;;;;;;9.70;99.90;;;;;;4985047;28;19921;-78
2022/11/12 16:20:15;;;;;;;;;;;9.60;99.90;;;;;;5004163;28;19921;-77
2022/11/12 16:23:01;;;;;;;;;;;9.60;99.90;;;;;;4985327;28;20075;-75
2022/11/12 16:25:46;;;;;;;;;;;9.50;99.90;;;;;;4982903;28;20016;-77
2022/11/12 16:28:32;;;;;;;;;;;9.40;99.90;;;;;;4988223;28;19928;-75
2022/11/12 16:31:18;;;;;;;;;;;9.30;99.90;;;;;;4988558;28;19933;-76
2022/11/12 16:34:03;;;;;;;;;;;9.20;99.90;;;;;;4996958;28;20101;-77
2022/11/12 16:36:49;;;;;;;;;;;9.00;99.90;;;;;;4987396;28;19992;-75
2022/11/12 16:39:34;;;;;;;;;;;8.90;99.90;;;;;;5004039;28;19972;-77
2022/11/12 16:42:19;;;;;;;;;;;8.80;99.90;;;;;;4997808;28;19949;-79
2022/11/12 16:45:04;;;;;;;;;;;8.70;99.90;;;;;;4994321;28;19993;-78
2022/11/12 16:47:50;;;;;;;;;;;8.70;99.90;;;;;;5008295;28;20104;-78
2022/11/12 16:50:36;;;;;;;;;;;8.60;99.90;;;;;;4982566;28;19995;-77
2022/11/12 16:53:21;;;;;;;;;;;8.40;99.90;;;;;;4981980;28;20394;-78